createdAt,value
2018-07-23T00:00:00.555Z,11.10
2018-07-23T00:01:00.581Z,10.80
2018-07-23T00:02:00.600Z,10.30
2018-07-23T00:03:00.625Z,10.60
2018-07-23T00:04:00.649Z,10.60
2018-07-23T00:05:00.674Z,10.90
2018-07-23T00:06:00.700Z,10.50
2018-07-23T00:07:00.724Z,10.20
2018-07-23T00:08:00.748Z,10.40
2018-07-23T00:09:00.767Z,10.80
2018-07-23T00:10:00.796Z,11.00
2018-07-23T00:11:00.817Z,9.80
2018-07-23T00:12:00.841Z,10.30
2018-07-23T00:13:00.862Z,9.50
2018-07-23T00:14:00.891Z,10.60
2018-07-23T00:15:00.913Z,10.40
2018-07-23T00:16:00.935Z,10.50
2018-07-23T00:17:00.960Z,10.80
2018-07-23T00:18:00.985Z,10.50
2018-07-23T00:19:01.006Z,11.60
2018-07-23T00:20:01.032Z,10.00
2018-07-23T00:21:01.063Z,11.00
2018-07-23T00:22:01.081Z,10.30
2018-07-23T00:23:01.102Z,11.00
2018-07-23T00:24:01.129Z,10.70
2018-07-23T00:25:01.150Z,10.90
2018-07-23T00:26:01.177Z,10.20
2018-07-23T00:27:01.201Z,10.70
2018-07-23T00:28:01.223Z,11.00
2018-07-23T00:29:01.250Z,10.80
2018-07-23T00:30:01.270Z,10.80
2018-07-23T00:31:01.296Z,10.90
2018-07-23T00:32:01.321Z,9.90
2018-07-23T00:33:01.342Z,10.40
2018-07-23T00:34:01.369Z,10.50
2018-07-23T00:35:01.392Z,10.70
2018-07-23T00:36:01.412Z,11.30
2018-07-23T00:37:01.436Z,10.70
2018-07-23T00:38:01.464Z,10.80
2018-07-23T00:39:01.484Z,10.80
2018-07-23T00:40:01.508Z,10.90
2018-07-23T00:41:01.535Z,11.30
2018-07-23T00:42:01.559Z,10.50
2018-07-23T00:43:01.582Z,10.90
2018-07-23T00:44:01.611Z,11.00
2018-07-23T00:45:01.627Z,10.60
2018-07-23T00:46:01.658Z,11.10
2018-07-23T00:47:01.676Z,11.10
2018-07-23T00:48:01.702Z,11.60
2018-07-23T00:49:01.725Z,11.50
2018-07-23T00:50:01.751Z,11.20
2018-07-23T00:51:01.771Z,11.80
2018-07-23T00:52:01.795Z,11.80
2018-07-23T00:53:01.817Z,11.90
2018-07-23T00:54:01.845Z,11.20
2018-07-23T00:55:01.867Z,10.80
2018-07-23T00:56:01.891Z,11.20
2018-07-23T00:57:01.917Z,11.80
2018-07-23T00:58:01.939Z,11.20
2018-07-23T00:59:01.963Z,11.30
2018-07-23T01:00:01.986Z,11.70
2018-07-23T01:01:02.011Z,12.30
2018-07-23T01:02:02.034Z,11.90
2018-07-23T01:03:02.057Z,12.60
2018-07-23T01:04:02.081Z,12.20
2018-07-23T01:05:02.107Z,11.40
2018-07-23T01:06:02.130Z,12.30
2018-07-23T01:07:02.150Z,11.40
2018-07-23T01:08:02.174Z,11.90
2018-07-23T01:09:02.198Z,12.30
2018-07-23T01:10:02.229Z,14.30
2018-07-23T01:11:02.246Z,13.50
2018-07-23T01:12:02.272Z,13.30
2018-07-23T01:13:02.294Z,14.10
2018-07-23T01:14:02.320Z,14.50
2018-07-23T01:15:02.343Z,14.40
2018-07-23T01:16:02.367Z,14.00
2018-07-23T01:17:02.389Z,14.70
2018-07-23T01:18:02.415Z,14.50
2018-07-23T01:19:02.437Z,14.10
2018-07-23T01:20:02.461Z,14.50
2018-07-23T01:21:02.485Z,14.10
2018-07-23T01:22:02.507Z,14.60
2018-07-23T01:23:02.530Z,14.20
2018-07-23T01:24:02.559Z,14.40
2018-07-23T01:25:02.577Z,14.10
2018-07-23T01:26:02.600Z,14.40
2018-07-23T01:27:02.627Z,13.50
2018-07-23T01:28:02.652Z,14.40
2018-07-23T01:29:02.675Z,13.90
2018-07-23T01:30:02.700Z,14.00
2018-07-23T01:31:05.343Z,13.80
2018-07-23T01:32:02.745Z,14.20
2018-07-23T01:33:02.772Z,14.50
2018-07-23T01:34:02.793Z,14.10
2018-07-23T01:35:02.813Z,14.40
2018-07-23T01:36:02.841Z,14.30
2018-07-23T01:37:02.862Z,13.80
2018-07-23T01:38:02.886Z,14.20
2018-07-23T01:39:02.910Z,14.30
2018-07-23T01:40:02.935Z,13.60
2018-07-23T01:41:02.957Z,13.90
2018-07-23T01:42:02.983Z,14.20
2018-07-23T01:43:03.002Z,14.80
2018-07-23T01:44:03.029Z,14.00
2018-07-23T01:45:03.055Z,14.10
2018-07-23T01:46:03.075Z,13.90
2018-07-23T01:47:03.100Z,14.20
2018-07-23T01:48:03.124Z,14.30
2018-07-23T01:49:03.147Z,14.50
2018-07-23T01:50:03.172Z,14.60
2018-07-23T01:51:03.195Z,14.60
2018-07-23T01:52:03.215Z,14.90
2018-07-23T01:53:03.241Z,14.10
2018-07-23T01:54:03.263Z,14.90
2018-07-23T01:55:03.287Z,14.70
2018-07-23T01:56:03.313Z,14.70
2018-07-23T01:57:03.335Z,15.30
2018-07-23T01:58:03.357Z,14.60
2018-07-23T01:59:03.380Z,14.90
2018-07-23T02:00:03.405Z,14.90
2018-07-23T02:01:03.432Z,14.80
2018-07-23T02:02:03.453Z,15.00
2018-07-23T02:03:03.477Z,15.20
2018-07-23T02:04:03.503Z,15.30
2018-07-23T02:05:03.527Z,14.80
2018-07-23T02:06:03.551Z,15.70
2018-07-23T02:07:03.570Z,15.80
2018-07-23T02:08:03.594Z,15.60
2018-07-23T02:09:03.621Z,15.50
2018-07-23T02:10:03.645Z,14.90
2018-07-23T02:11:03.665Z,16.70
2018-07-23T02:12:03.691Z,15.80
2018-07-23T02:13:03.715Z,15.80
2018-07-23T02:14:03.741Z,15.80
2018-07-23T02:15:03.762Z,15.90
2018-07-23T02:16:03.783Z,16.20
2018-07-23T02:17:03.807Z,16.00
2018-07-23T02:18:03.835Z,16.60
2018-07-23T02:19:03.856Z,16.80
2018-07-23T02:20:03.884Z,15.90
2018-07-23T02:21:03.902Z,16.50
2018-07-23T02:22:03.928Z,16.10
2018-07-23T02:23:03.951Z,16.20
2018-07-23T02:24:03.974Z,17.10
2018-07-23T02:25:03.998Z,17.20
2018-07-23T02:26:04.020Z,17.80
2018-07-23T02:27:04.046Z,17.40
2018-07-23T02:28:04.070Z,17.20
2018-07-23T02:29:04.093Z,17.00
2018-07-23T02:30:04.115Z,16.60
2018-07-23T02:31:04.144Z,17.90
2018-07-23T02:32:04.162Z,17.30
2018-07-23T02:33:04.186Z,17.60
2018-07-23T02:34:04.210Z,17.20
2018-07-23T02:35:04.232Z,18.30
2018-07-23T02:36:04.259Z,18.40
2018-07-23T02:37:04.282Z,18.20
2018-07-23T02:38:04.307Z,18.30
2018-07-23T02:39:04.327Z,19.00
2018-07-23T02:40:04.356Z,19.60
2018-07-23T02:41:04.377Z,18.70
2018-07-23T02:42:04.402Z,19.30
2018-07-23T02:43:04.423Z,19.80
2018-07-23T02:44:04.445Z,20.10
2018-07-23T02:45:04.472Z,20.30
2018-07-23T02:46:04.496Z,19.90
2018-07-23T02:47:04.517Z,19.60
2018-07-23T02:48:04.539Z,20.50
2018-07-23T02:49:04.563Z,19.20
2018-07-23T02:50:04.588Z,19.50
2018-07-23T02:51:04.612Z,19.70
2018-07-23T02:52:04.633Z,20.10
2018-07-23T02:53:04.658Z,20.20
2018-07-23T02:54:04.684Z,20.80
2018-07-23T02:55:04.706Z,20.00
2018-07-23T02:56:04.733Z,19.80
2018-07-23T02:57:04.751Z,19.00
2018-07-23T02:58:04.775Z,19.30
2018-07-23T02:59:04.797Z,19.70
2018-07-23T03:00:04.824Z,19.70
2018-07-23T03:01:04.845Z,19.50
2018-07-23T03:02:04.869Z,19.60
2018-07-23T03:03:04.894Z,20.10
2018-07-23T03:04:04.915Z,20.10
2018-07-23T03:05:04.940Z,19.80
2018-07-23T03:06:04.965Z,18.50
2018-07-23T03:08:05.008Z,20.00
2018-07-23T03:09:05.034Z,19.40
2018-07-23T03:10:05.058Z,20.50
2018-07-23T03:11:05.080Z,18.70
2018-07-23T03:12:05.101Z,19.60
2018-07-23T03:13:05.125Z,20.20
2018-07-23T03:15:05.170Z,19.20
2018-07-23T03:16:05.197Z,18.80
2018-07-23T03:17:05.219Z,19.40
2018-07-23T03:18:05.247Z,18.40
2018-07-23T03:19:05.264Z,18.70
2018-07-23T03:20:05.287Z,18.60
2018-07-23T03:21:05.308Z,19.20
2018-07-23T03:22:05.334Z,18.20
2018-07-23T03:23:05.363Z,18.60
2018-07-23T03:24:05.377Z,17.80
2018-07-23T03:25:05.400Z,18.70
2018-07-23T03:26:05.418Z,17.80
2018-07-23T03:27:05.443Z,18.40
2018-07-23T03:28:05.464Z,19.20
2018-07-23T03:29:05.487Z,18.60
2018-07-23T03:30:05.511Z,18.50
2018-07-23T03:31:05.531Z,18.10
2018-07-23T03:32:05.554Z,18.40
2018-07-23T03:33:05.573Z,18.30
2018-07-23T03:34:05.595Z,17.60
2018-07-23T03:35:05.620Z,19.00
2018-07-23T03:36:05.641Z,18.30
2018-07-23T03:37:05.662Z,18.50
2018-07-23T03:38:05.686Z,18.10
2018-07-23T03:39:05.706Z,18.70
2018-07-23T03:40:05.726Z,17.90
2018-07-23T03:41:05.748Z,17.40
2018-07-23T03:42:05.776Z,18.20
2018-07-23T03:43:05.795Z,19.00
2018-07-23T03:44:05.818Z,18.10
2018-07-23T03:45:05.835Z,18.50
2018-07-23T03:46:05.858Z,17.50
2018-07-23T03:47:05.882Z,18.10
2018-07-23T03:48:05.901Z,19.40
2018-07-23T03:49:05.925Z,18.20
2018-07-23T03:50:05.947Z,18.30
2018-07-23T03:51:05.966Z,18.80
2018-07-23T03:52:05.990Z,18.20
2018-07-23T03:53:06.010Z,18.70
2018-07-23T03:54:06.030Z,19.20
2018-07-23T03:55:06.052Z,18.60
2018-07-23T03:56:06.073Z,19.70
2018-07-23T03:57:06.099Z,18.60
2018-07-23T03:58:06.120Z,19.10
2018-07-23T03:59:06.139Z,19.10
2018-07-23T04:00:06.165Z,18.50
2018-07-23T04:01:06.181Z,18.40
2018-07-23T04:02:06.206Z,18.80
2018-07-23T04:03:06.232Z,19.20
2018-07-23T04:04:06.249Z,19.30
2018-07-23T04:05:06.268Z,19.30
2018-07-23T04:06:06.290Z,19.90
2018-07-23T04:07:06.311Z,19.30
2018-07-23T04:08:06.335Z,19.80
2018-07-23T04:09:06.354Z,20.00
2018-07-23T04:10:06.446Z,20.10
2018-07-23T04:11:06.397Z,19.40
2018-07-23T04:12:06.419Z,19.80
2018-07-23T04:13:06.440Z,19.80
2018-07-23T04:14:06.466Z,19.80
2018-07-23T04:15:06.484Z,19.90
2018-07-23T04:16:06.507Z,19.90
2018-07-23T04:17:06.529Z,20.50
2018-07-23T04:18:06.548Z,19.70
2018-07-23T04:19:06.571Z,20.00
2018-07-23T04:20:06.593Z,19.60
2018-07-23T04:21:06.614Z,19.50
2018-07-23T04:22:06.637Z,19.50
2018-07-23T04:23:06.659Z,19.60
2018-07-23T04:24:06.677Z,20.40
2018-07-23T04:25:06.699Z,19.70
2018-07-23T04:26:06.824Z,20.00
2018-07-23T04:27:06.741Z,19.90
2018-07-23T04:28:06.766Z,20.50
2018-07-23T04:29:06.787Z,20.00
2018-07-23T04:30:06.811Z,20.50
2018-07-23T04:31:06.826Z,20.50
2018-07-23T04:32:06.849Z,19.50
2018-07-23T04:33:06.870Z,20.50
2018-07-23T04:34:06.895Z,21.90
2018-07-23T04:35:06.912Z,19.40
2018-07-23T04:36:06.934Z,20.40
2018-07-23T04:37:06.957Z,20.70
2018-07-23T04:38:06.979Z,20.30
2018-07-23T04:39:07.000Z,19.80
2018-07-23T04:40:07.020Z,19.50
2018-07-23T04:41:07.041Z,20.00
2018-07-23T04:42:07.067Z,20.10
2018-07-23T04:43:07.086Z,19.80
2018-07-23T04:44:07.105Z,21.00
2018-07-23T04:45:07.130Z,21.10
2018-07-23T04:46:07.149Z,20.50
2018-07-23T04:47:07.170Z,20.10
2018-07-23T04:48:07.194Z,20.00
2018-07-23T04:49:07.214Z,20.50
2018-07-23T04:50:07.235Z,20.20
2018-07-23T04:51:07.258Z,19.70
2018-07-23T04:52:07.277Z,19.70
2018-07-23T04:53:07.299Z,20.00
2018-07-23T04:54:07.324Z,20.40
2018-07-23T04:55:07.344Z,20.80
2018-07-23T04:56:07.366Z,19.50
2018-07-23T04:57:07.387Z,20.20
2018-07-23T04:58:07.410Z,20.30
2018-07-23T04:59:07.431Z,21.30
2018-07-23T05:00:07.449Z,20.90
2018-07-23T05:01:07.475Z,20.70
2018-07-23T05:02:07.493Z,21.10
2018-07-23T05:03:07.522Z,19.90
2018-07-23T05:04:07.535Z,21.40
2018-07-23T05:05:07.561Z,21.10
2018-07-23T05:06:07.581Z,20.70
2018-07-23T05:07:07.602Z,20.80
2018-07-23T05:08:07.625Z,20.10
2018-07-23T05:09:07.646Z,20.30
2018-07-23T05:10:07.668Z,19.90
2018-07-23T05:11:07.686Z,20.60
2018-07-23T05:12:07.710Z,20.60
2018-07-23T05:13:07.885Z,21.40
2018-07-23T05:14:07.752Z,20.50
2018-07-23T05:15:07.897Z,20.00
2018-07-23T05:16:07.797Z,19.50
2018-07-23T05:17:07.817Z,20.20
2018-07-23T05:18:07.841Z,19.60
2018-07-23T05:19:07.861Z,20.00
2018-07-23T05:20:07.884Z,18.80
2018-07-23T05:21:07.905Z,19.10
2018-07-23T05:22:08.106Z,20.00
2018-07-23T05:23:07.947Z,19.20
2018-07-23T05:24:07.969Z,19.70
2018-07-23T05:25:07.991Z,18.90
2018-07-23T05:26:08.018Z,19.70
2018-07-23T05:27:08.033Z,18.50
2018-07-23T05:28:08.055Z,18.60
2018-07-23T05:29:08.079Z,19.30
2018-07-23T05:30:08.104Z,19.80
2018-07-23T05:31:08.121Z,19.80
2018-07-23T05:32:08.146Z,19.00
2018-07-23T05:33:08.165Z,18.50
2018-07-23T05:34:08.188Z,18.70
2018-07-23T05:35:08.212Z,18.70
2018-07-23T05:36:08.235Z,19.30
2018-07-23T05:37:08.256Z,18.50
2018-07-23T05:38:08.277Z,18.10
2018-07-23T05:39:08.298Z,18.70
2018-07-23T05:40:08.321Z,18.50
2018-07-23T05:41:08.347Z,18.50
2018-07-23T05:42:08.368Z,18.20
2018-07-23T05:43:08.390Z,18.20
2018-07-23T05:44:08.410Z,17.30
2018-07-23T05:45:08.435Z,18.80
2018-07-23T05:46:08.459Z,18.60
2018-07-23T05:47:08.480Z,17.90
2018-07-23T05:48:08.504Z,17.90
2018-07-23T05:49:08.526Z,18.60
2018-07-23T05:50:08.547Z,17.30
2018-07-23T05:51:08.572Z,16.90
2018-07-23T05:52:08.593Z,18.20
2018-07-23T05:53:08.618Z,17.00
2018-07-23T05:54:08.642Z,17.10
2018-07-23T05:55:08.662Z,17.40
2018-07-23T05:56:08.688Z,16.60
2018-07-23T05:57:08.708Z,17.00
2018-07-23T05:58:08.733Z,17.70
2018-07-23T05:59:08.754Z,17.30
2018-07-23T06:00:08.787Z,16.80
2018-07-23T06:01:08.803Z,17.20
2018-07-23T06:02:08.826Z,17.10
2018-07-23T06:03:08.848Z,16.00
2018-07-23T06:04:08.876Z,16.80
2018-07-23T06:05:08.894Z,16.10
2018-07-23T06:06:08.923Z,17.20
2018-07-23T06:07:08.943Z,15.90
2018-07-23T06:08:08.966Z,15.90
2018-07-23T06:09:08.992Z,15.50
2018-07-23T06:10:09.015Z,15.60
2018-07-23T06:11:09.039Z,15.90
2018-07-23T06:12:09.061Z,15.40
2018-07-23T06:13:09.132Z,15.70
2018-07-23T06:14:09.111Z,14.90
2018-07-23T06:15:09.132Z,15.10
2018-07-23T06:16:09.155Z,15.10
2018-07-23T06:17:09.191Z,15.20
2018-07-23T06:18:09.204Z,14.70
2018-07-23T06:19:09.228Z,15.10
2018-07-23T06:20:09.255Z,15.30
2018-07-23T06:21:09.277Z,15.20
2018-07-23T06:22:09.305Z,14.80
2018-07-23T06:23:09.326Z,14.10
2018-07-23T06:24:09.351Z,15.00
2018-07-23T06:25:09.378Z,15.10
2018-07-23T06:26:09.400Z,14.30
2018-07-23T06:27:09.424Z,15.30
2018-07-23T06:28:09.451Z,14.60
2018-07-23T06:29:09.473Z,15.30
2018-07-23T06:30:09.572Z,14.10
2018-07-23T06:31:09.526Z,14.20
2018-07-23T06:32:09.551Z,13.60
2018-07-23T06:33:09.574Z,12.70
2018-07-23T06:34:09.602Z,14.00
2018-07-23T06:35:09.624Z,13.60
2018-07-23T06:36:09.651Z,13.30
2018-07-23T06:37:09.676Z,12.80
2018-07-23T06:38:09.700Z,12.40
2018-07-23T06:39:09.724Z,13.00
2018-07-23T06:40:09.749Z,13.90
2018-07-23T06:41:09.775Z,12.20
2018-07-23T06:42:09.801Z,12.40
2018-07-23T06:43:09.827Z,12.30
2018-07-23T06:44:09.852Z,13.10
2018-07-23T06:45:09.878Z,13.80
2018-07-23T06:46:09.906Z,12.30
2018-07-23T06:47:09.929Z,12.30
2018-07-23T06:48:09.958Z,13.10
2018-07-23T06:49:09.983Z,11.90
2018-07-23T06:50:10.009Z,13.10
2018-07-23T06:51:10.035Z,12.90
2018-07-23T06:52:10.062Z,12.60
2018-07-23T06:53:10.090Z,12.60
2018-07-23T06:54:10.195Z,13.00
2018-07-23T06:55:10.142Z,13.30
2018-07-23T06:56:10.169Z,12.70
2018-07-23T06:57:10.195Z,12.00
2018-07-23T06:58:10.223Z,12.90
2018-07-23T06:59:10.246Z,11.60
2018-07-23T07:00:10.272Z,11.70
2018-07-23T07:01:10.306Z,10.90
2018-07-23T07:02:10.330Z,11.50
2018-07-23T07:03:10.383Z,10.50
2018-07-23T07:04:10.380Z,11.10
2018-07-23T07:05:10.411Z,10.90
2018-07-23T07:06:10.438Z,11.40
2018-07-23T07:07:10.464Z,11.50
2018-07-23T07:08:10.489Z,11.70
2018-07-23T07:09:10.519Z,10.90
2018-07-23T07:10:10.548Z,11.80
2018-07-23T07:11:10.572Z,11.70
2018-07-23T07:12:10.602Z,12.20
2018-07-23T07:13:10.630Z,12.40
2018-07-23T07:14:10.656Z,12.20
2018-07-23T07:15:10.684Z,11.40
2018-07-23T07:16:10.709Z,10.80
2018-07-23T07:17:10.740Z,10.70
2018-07-23T07:18:10.767Z,11.30
2018-07-23T07:19:10.796Z,10.70
2018-07-23T07:20:10.824Z,11.30
2018-07-23T07:21:10.852Z,10.50
2018-07-23T07:22:10.881Z,10.60
2018-07-23T07:23:10.905Z,10.90
2018-07-23T07:24:10.939Z,10.80
2018-07-23T07:25:10.965Z,10.30
2018-07-23T07:26:11.032Z,10.00
2018-07-23T07:27:11.020Z,10.50
2018-07-23T07:28:11.047Z,10.70
2018-07-23T07:29:11.078Z,10.40
2018-07-23T07:30:11.103Z,11.00
2018-07-23T07:31:11.131Z,9.90
2018-07-23T07:32:11.161Z,10.70
2018-07-23T07:33:11.191Z,10.40
2018-07-23T07:34:11.217Z,9.80
2018-07-23T07:35:11.247Z,10.00
2018-07-23T07:36:11.278Z,9.70
2018-07-23T07:37:11.307Z,9.00
2018-07-23T07:38:11.373Z,8.10
2018-07-23T07:39:11.360Z,8.40
2018-07-23T07:40:11.393Z,8.90
2018-07-23T07:41:11.420Z,8.50
2018-07-23T07:42:11.449Z,8.90
2018-07-23T07:43:11.478Z,8.20
2018-07-23T07:44:11.508Z,7.10
2018-07-23T07:45:11.535Z,9.30
2018-07-23T07:46:11.568Z,7.80
2018-07-23T07:47:11.595Z,8.90
2018-07-23T07:48:11.624Z,7.70
2018-07-23T07:49:11.656Z,8.70
2018-07-23T07:50:11.683Z,8.70
2018-07-23T07:51:11.714Z,8.10
2018-07-23T07:52:11.743Z,8.50
2018-07-23T07:53:11.773Z,8.40
2018-07-23T07:54:11.803Z,8.10
2018-07-23T07:55:11.834Z,9.50
2018-07-23T07:56:11.900Z,9.00
2018-07-23T07:57:11.890Z,9.70
2018-07-23T07:58:11.920Z,9.40
2018-07-23T07:59:12.000Z,8.90
2018-07-23T08:00:11.981Z,9.20
2018-07-23T08:01:12.013Z,8.50
2018-07-23T08:02:12.040Z,8.20
2018-07-23T08:03:12.071Z,7.40
2018-07-23T08:04:12.100Z,7.70
2018-07-23T08:05:12.134Z,7.50
2018-07-23T08:06:12.163Z,7.80
2018-07-23T08:07:12.268Z,7.40
2018-07-23T08:08:12.222Z,7.40
2018-07-23T08:09:12.257Z,7.10
2018-07-23T08:10:12.287Z,7.10
2018-07-23T08:11:12.313Z,7.40
2018-07-23T08:12:12.345Z,7.20
2018-07-23T08:13:12.375Z,7.10
2018-07-23T08:14:12.407Z,7.10
2018-07-23T08:15:12.438Z,6.90
2018-07-23T08:16:12.470Z,7.20
2018-07-23T08:17:12.499Z,7.50
2018-07-23T08:18:12.529Z,6.80
2018-07-23T08:19:12.562Z,6.20
2018-07-23T08:20:12.640Z,6.00
2018-07-23T08:21:12.620Z,7.10
2018-07-23T08:22:12.652Z,6.40
2018-07-23T08:23:12.687Z,6.20
2018-07-23T08:24:12.715Z,6.70
2018-07-23T08:25:12.791Z,6.20
2018-07-23T08:26:12.776Z,6.50
2018-07-23T08:27:12.807Z,5.70
2018-07-23T08:28:12.841Z,5.80
2018-07-23T08:29:12.869Z,5.40
2018-07-23T08:30:12.904Z,5.30
2018-07-23T08:31:12.933Z,5.70
2018-07-23T08:32:13.092Z,5.50
2018-07-23T08:33:12.994Z,5.40
2018-07-23T08:34:13.027Z,4.80
2018-07-23T08:35:13.059Z,5.00
2018-07-23T08:36:13.092Z,5.30
2018-07-23T08:37:13.143Z,4.70
2018-07-23T08:38:13.152Z,4.40
2018-07-23T08:39:13.186Z,4.10
2018-07-23T08:40:13.214Z,3.80
2018-07-23T08:41:13.245Z,4.20
2018-07-23T08:42:13.279Z,4.30
2018-07-23T08:43:13.312Z,4.30
2018-07-23T08:44:13.343Z,4.50
2018-07-23T08:45:13.374Z,4.80
2018-07-23T08:46:13.405Z,4.60
2018-07-23T08:47:13.434Z,5.10
2018-07-23T08:48:13.468Z,4.40
2018-07-23T08:49:13.504Z,4.10
2018-07-23T08:50:13.531Z,3.90
2018-07-23T08:51:13.594Z,4.00
2018-07-23T08:52:13.596Z,3.90
2018-07-23T08:53:13.628Z,4.10
2018-07-23T08:54:13.659Z,3.90
2018-07-23T08:55:13.689Z,3.60
2018-07-23T08:56:13.736Z,3.60
2018-07-23T08:57:13.760Z,4.40
2018-07-23T08:58:13.785Z,4.10
2018-07-23T08:59:13.819Z,3.80
2018-07-23T09:00:13.848Z,3.40
2018-07-23T09:01:13.881Z,3.30
2018-07-23T09:02:13.924Z,3.10
2018-07-23T09:03:13.947Z,3.30
2018-07-23T09:04:13.977Z,3.30
2018-07-23T09:05:14.010Z,3.40
2018-07-23T09:06:14.044Z,3.30
2018-07-23T09:07:14.071Z,3.20
2018-07-23T09:08:14.107Z,3.30
2018-07-23T09:09:14.138Z,2.80
2018-07-23T09:10:14.170Z,4.00
2018-07-23T09:11:14.203Z,3.80
2018-07-23T09:12:14.235Z,3.20
2018-07-23T09:13:14.264Z,3.00
2018-07-23T09:14:14.300Z,3.30
2018-07-23T09:15:14.328Z,3.00
2018-07-23T09:16:14.359Z,3.10
2018-07-23T09:17:14.419Z,3.10
2018-07-23T09:18:14.425Z,2.70
2018-07-23T09:19:14.455Z,3.10
2018-07-23T09:20:14.489Z,3.10
2018-07-23T09:21:14.520Z,3.50
2018-07-23T09:22:14.583Z,3.10
2018-07-23T09:23:14.588Z,2.70
2018-07-23T09:24:14.619Z,2.60
2018-07-23T09:25:14.652Z,2.80
2018-07-23T09:26:14.684Z,3.20
2018-07-23T09:27:14.713Z,3.00
2018-07-23T09:28:14.754Z,2.90
2018-07-23T09:29:14.780Z,3.00
2018-07-23T09:30:14.855Z,3.00
2018-07-23T09:31:14.844Z,3.00
2018-07-23T09:32:14.875Z,3.10
2018-07-23T09:33:14.910Z,2.90
2018-07-23T09:34:14.941Z,2.70
2018-07-23T09:35:14.970Z,2.90
2018-07-23T09:36:15.006Z,3.00
2018-07-23T09:37:15.056Z,2.70
2018-07-23T09:38:15.068Z,2.80
2018-07-23T09:39:15.103Z,2.80
2018-07-23T09:40:15.135Z,3.80
2018-07-23T09:41:15.166Z,2.70
2018-07-23T09:43:15.232Z,3.00
2018-07-23T09:44:15.265Z,2.80
2018-07-23T09:45:15.295Z,2.70
2018-07-23T09:46:15.329Z,2.80
2018-07-23T09:47:15.362Z,2.60
2018-07-23T09:48:18.089Z,2.70
2018-07-23T09:49:15.432Z,2.80
2018-07-23T09:50:15.462Z,3.30
2018-07-23T09:51:15.498Z,2.90
2018-07-23T09:52:15.733Z,2.70
2018-07-23T09:53:15.565Z,2.70
2018-07-23T09:54:16.006Z,2.40
2018-07-23T09:55:15.633Z,2.40
2018-07-23T09:56:15.669Z,2.40
2018-07-23T09:57:15.699Z,2.20
2018-07-23T09:58:15.734Z,2.50
2018-07-23T09:59:15.765Z,2.40
2018-07-23T10:00:15.800Z,2.70
2018-07-23T10:01:15.829Z,2.60
2018-07-23T10:02:15.865Z,2.20
2018-07-23T10:03:15.990Z,2.40
2018-07-23T10:04:15.928Z,2.40
2018-07-23T10:05:15.966Z,2.50
2018-07-23T10:06:15.994Z,2.30
2018-07-23T10:07:16.027Z,2.70
2018-07-23T10:08:16.061Z,2.40
2018-07-23T10:09:16.096Z,2.10
2018-07-23T10:10:16.128Z,2.20
2018-07-23T10:11:16.158Z,2.30
2018-07-23T10:12:16.191Z,2.30
2018-07-23T10:13:16.224Z,2.20
2018-07-23T10:14:16.258Z,2.10
2018-07-23T10:15:16.288Z,2.20
2018-07-23T10:16:16.326Z,2.00
2018-07-23T10:17:16.357Z,2.20
2018-07-23T10:18:16.390Z,2.50
2018-07-23T10:19:16.420Z,2.10
2018-07-23T10:20:16.452Z,2.30
2018-07-23T10:21:16.487Z,2.20
2018-07-23T10:22:16.573Z,2.60
2018-07-23T10:23:16.552Z,2.20
2018-07-23T10:24:16.583Z,2.20
2018-07-23T10:25:16.616Z,2.30
2018-07-23T10:26:16.647Z,2.40
2018-07-23T10:27:16.682Z,2.10
2018-07-23T10:28:16.711Z,2.20
2018-07-23T10:29:16.747Z,2.00
2018-07-23T10:30:16.779Z,2.30
2018-07-23T10:31:16.811Z,2.60
2018-07-23T10:32:16.847Z,2.60
2018-07-23T10:33:16.879Z,2.50
2018-07-23T10:34:16.910Z,2.50
2018-07-23T10:35:16.940Z,2.40
2018-07-23T10:36:16.973Z,2.40
2018-07-23T10:37:17.006Z,2.60
2018-07-23T10:38:17.042Z,3.00
2018-07-23T10:39:17.070Z,2.80
2018-07-23T10:40:17.103Z,2.80
2018-07-23T10:41:17.141Z,2.30
2018-07-23T10:42:17.171Z,2.50
2018-07-23T10:43:17.202Z,2.80
2018-07-23T10:44:17.235Z,2.30
2018-07-23T10:45:17.270Z,2.30
2018-07-23T10:46:17.304Z,2.40
2018-07-23T10:47:17.333Z,2.40
2018-07-23T10:48:17.367Z,2.50
2018-07-23T10:49:17.399Z,2.40
2018-07-23T10:50:17.436Z,2.60
2018-07-23T10:51:17.466Z,2.70
2018-07-23T10:52:17.501Z,2.50
2018-07-23T10:53:17.538Z,2.40
2018-07-23T10:54:17.567Z,2.30
2018-07-23T10:55:17.598Z,2.60
2018-07-23T10:56:17.630Z,2.50
2018-07-23T10:57:17.700Z,2.40
2018-07-23T10:58:17.698Z,2.50
2018-07-23T10:59:17.730Z,2.70
2018-07-23T11:00:17.762Z,2.30
2018-07-23T11:01:17.795Z,2.60
2018-07-23T11:02:17.829Z,2.30
2018-07-23T11:03:17.861Z,2.30
2018-07-23T11:04:17.953Z,2.60
2018-07-23T11:05:17.928Z,2.30
2018-07-23T11:06:17.967Z,2.10
2018-07-23T11:07:18.046Z,2.40
2018-07-23T11:08:18.029Z,2.20
2018-07-23T11:09:18.060Z,2.40
2018-07-23T11:10:18.096Z,2.10
2018-07-23T11:11:18.127Z,2.10
2018-07-23T11:12:18.158Z,2.10
2018-07-23T11:13:18.191Z,2.50
2018-07-23T11:14:18.224Z,2.50
2018-07-23T11:15:18.256Z,2.40
2018-07-23T11:16:18.289Z,2.30
2018-07-23T11:17:18.326Z,2.70
2018-07-23T11:18:18.357Z,2.30
2018-07-23T11:19:18.529Z,2.50
2018-07-23T11:20:18.425Z,2.50
2018-07-23T11:21:18.456Z,2.50
2018-07-23T11:22:18.491Z,2.80
2018-07-23T11:23:18.523Z,2.50
2018-07-23T11:24:18.555Z,2.70
2018-07-23T11:25:39.178Z,2.50
2018-07-23T11:26:18.674Z,2.40
2018-07-23T11:27:18.656Z,2.70
2018-07-23T11:28:18.684Z,2.10
2018-07-23T11:29:18.719Z,2.20
2018-07-23T11:30:18.753Z,2.20
2018-07-23T11:31:18.785Z,2.50
2018-07-23T11:32:18.816Z,2.50
2018-07-23T11:33:18.851Z,2.50
2018-07-23T11:34:18.882Z,2.50
2018-07-23T11:35:18.916Z,2.70
2018-07-23T11:36:18.950Z,2.40
2018-07-23T11:37:18.982Z,2.30
2018-07-23T11:38:19.017Z,2.40
2018-07-23T11:39:19.050Z,2.10
2018-07-23T11:40:19.080Z,2.30
2018-07-23T11:41:19.112Z,2.20
2018-07-23T11:42:19.147Z,2.30
2018-07-23T11:43:19.176Z,2.20
2018-07-23T11:44:19.210Z,2.20
2018-07-23T11:45:19.287Z,2.20
2018-07-23T11:46:24.987Z,2.40
2018-07-23T11:47:19.308Z,2.20
2018-07-23T11:48:19.343Z,2.30
2018-07-23T11:49:19.375Z,2.40
2018-07-23T11:50:19.410Z,2.20
2018-07-23T11:51:19.442Z,2.10
2018-07-23T11:52:19.478Z,2.30
2018-07-23T11:53:19.527Z,2.40
2018-07-23T11:54:19.539Z,2.30
2018-07-23T11:55:19.573Z,2.20
2018-07-23T11:56:19.604Z,2.40
2018-07-23T11:57:19.642Z,2.50
2018-07-23T11:58:19.672Z,2.40
2018-07-23T11:59:19.707Z,2.50
2018-07-23T12:00:19.738Z,2.10
2018-07-23T12:01:19.769Z,2.50
2018-07-23T12:02:19.801Z,2.50
2018-07-23T12:03:19.833Z,2.50
2018-07-23T12:04:19.958Z,2.10
2018-07-23T12:05:19.899Z,2.10
2018-07-23T12:06:19.937Z,2.20
2018-07-23T12:07:19.964Z,2.30
2018-07-23T12:08:20.002Z,2.20
2018-07-23T12:09:20.030Z,2.50
2018-07-23T12:10:20.064Z,2.40
2018-07-23T12:11:20.099Z,2.70
2018-07-23T12:12:20.128Z,2.40
2018-07-23T12:13:20.164Z,2.20
2018-07-23T12:14:20.195Z,2.80
2018-07-23T12:15:20.224Z,2.70
2018-07-23T12:16:20.261Z,2.50
2018-07-23T12:17:20.327Z,2.60
2018-07-23T12:18:20.324Z,2.50
2018-07-23T12:19:20.357Z,2.80
2018-07-23T12:20:20.386Z,2.30
2018-07-23T12:21:20.418Z,2.20
2018-07-23T12:22:20.450Z,2.30
2018-07-23T12:23:20.480Z,2.40
2018-07-23T12:24:20.514Z,2.40
2018-07-23T12:25:20.547Z,2.10
2018-07-23T12:26:20.577Z,2.00
2018-07-23T12:27:20.609Z,2.10
2018-07-23T12:28:20.642Z,2.10
2018-07-23T12:29:20.677Z,2.20
2018-07-23T12:30:20.707Z,2.40
2018-07-23T12:31:20.744Z,2.30
2018-07-23T12:32:20.802Z,1.90
2018-07-23T12:33:20.805Z,2.20
2018-07-23T12:34:20.837Z,2.30
2018-07-23T12:35:20.866Z,2.20
2018-07-23T12:36:20.902Z,2.10
2018-07-23T12:37:20.930Z,2.10
2018-07-23T12:38:20.966Z,1.90
2018-07-23T12:39:21.001Z,2.40
2018-07-23T12:40:21.029Z,2.40
2018-07-23T12:41:21.062Z,2.30
2018-07-23T12:42:21.095Z,2.10
2018-07-23T12:43:21.123Z,2.20
2018-07-23T12:44:21.159Z,2.40
2018-07-23T12:45:21.195Z,2.30
2018-07-23T12:46:21.225Z,2.40
2018-07-23T12:47:21.302Z,2.40
2018-07-23T12:48:21.284Z,2.40
2018-07-23T12:49:21.319Z,2.30
2018-07-23T12:50:21.351Z,2.40
2018-07-23T12:51:21.387Z,2.40
2018-07-23T12:52:21.415Z,2.20
2018-07-23T12:53:21.446Z,2.30
2018-07-23T12:54:21.477Z,2.40
2018-07-23T12:55:21.506Z,2.20
2018-07-23T12:56:21.540Z,2.30
2018-07-23T12:57:21.570Z,2.30
2018-07-23T12:58:21.604Z,2.10
2018-07-23T12:59:21.635Z,2.10
2018-07-23T13:00:21.664Z,2.30
2018-07-23T13:01:21.698Z,2.30
2018-07-23T13:02:21.730Z,2.40
2018-07-23T13:03:21.761Z,2.20
2018-07-23T13:04:21.790Z,2.40
2018-07-23T13:05:21.822Z,2.20
2018-07-23T13:06:21.850Z,2.00